createdAt,value
2018-05-13T00:02:14.050Z,6.10
2018-05-13T00:04:41.574Z,5.73
2018-05-13T00:07:09.072Z,6.03
2018-05-13T00:09:36.576Z,6.10
2018-05-13T00:12:04.106Z,6.20
2018-05-13T00:14:31.664Z,5.83
2018-05-13T00:16:59.200Z,5.57
2018-05-13T00:19:26.692Z,5.73
2018-05-13T00:21:54.212Z,6.07
2018-05-13T00:24:21.708Z,5.90
2018-05-13T00:26:49.304Z,5.63
2018-05-13T00:29:16.839Z,5.10
2018-05-13T00:31:44.413Z,5.50
2018-05-13T00:34:12.694Z,5.47
2018-05-13T00:36:40.176Z,5.60
2018-05-13T00:39:08.541Z,6.37
2018-05-13T00:41:36.050Z,5.73
2018-05-13T00:44:03.541Z,5.67
2018-05-13T00:46:31.049Z,5.40
2018-05-13T00:48:58.614Z,5.60
2018-05-13T00:51:26.173Z,5.47
2018-05-13T00:53:53.738Z,5.40
2018-05-13T00:56:21.311Z,6.00
2018-05-13T00:58:48.796Z,5.30
2018-05-13T01:01:17.153Z,5.50
2018-05-13T01:03:44.653Z,5.57
2018-05-13T01:06:13.022Z,5.57
2018-05-13T01:08:41.288Z,5.43
2018-05-13T01:11:08.780Z,5.73
2018-05-13T01:13:37.124Z,5.50
2018-05-13T01:16:04.709Z,5.00
2018-05-13T01:18:32.376Z,4.97
2018-05-13T01:20:59.836Z,5.13
2018-05-13T01:23:27.338Z,5.50
2018-05-13T01:25:54.839Z,5.27
2018-05-13T01:28:22.312Z,4.80
2018-05-13T01:30:49.836Z,5.10
2018-05-13T01:33:17.344Z,5.23
2018-05-13T01:35:44.836Z,5.17
2018-05-13T01:38:13.091Z,4.73
2018-05-13T01:40:40.581Z,4.60
2018-05-13T01:43:08.890Z,5.10
2018-05-13T01:45:36.409Z,4.87
2018-05-13T01:48:03.969Z,4.70
2018-05-13T01:50:31.471Z,5.03
2018-05-13T01:52:58.971Z,5.40
2018-05-13T01:55:26.573Z,4.87
2018-05-13T01:57:54.062Z,4.60
2018-05-13T02:00:22.415Z,5.00
2018-05-13T02:02:49.990Z,5.20
2018-05-13T02:05:17.484Z,4.80
2018-05-13T02:07:44.991Z,5.10
2018-05-13T02:10:12.477Z,5.00
2018-05-13T02:12:39.983Z,4.83
2018-05-13T02:15:07.503Z,4.93
2018-05-13T02:17:35.072Z,4.97
2018-05-13T02:20:02.634Z,4.53
2018-05-13T02:22:30.133Z,5.00
2018-05-13T02:24:58.384Z,5.03
2018-05-13T02:27:25.951Z,5.13
2018-05-13T02:29:53.560Z,5.63
2018-05-13T02:32:21.191Z,4.70
2018-05-13T02:34:48.699Z,5.30
2018-05-13T02:37:16.190Z,4.93
2018-05-13T02:39:43.694Z,5.00
2018-05-13T02:42:11.953Z,4.90
2018-05-13T02:44:39.465Z,4.63
2018-05-13T02:47:06.965Z,4.50
2018-05-13T02:49:34.597Z,4.97
2018-05-13T02:52:02.091Z,5.10
2018-05-13T02:54:29.688Z,4.80
2018-05-13T02:56:57.198Z,4.83
2018-05-13T02:59:24.701Z,4.70
2018-05-13T03:01:52.200Z,4.73
2018-05-13T03:04:20.553Z,4.87
2018-05-13T03:06:48.136Z,4.83
2018-05-13T03:09:15.692Z,4.60
2018-05-13T03:11:43.187Z,5.37
2018-05-13T03:14:11.537Z,5.50
2018-05-13T03:16:39.030Z,4.47
2018-05-13T03:19:07.353Z,4.83
2018-05-13T03:21:35.577Z,5.00
2018-05-13T03:24:03.119Z,4.07
2018-05-13T03:26:30.694Z,4.80
2018-05-13T03:28:58.212Z,5.53
2018-05-13T03:31:25.706Z,4.83
2018-05-13T03:33:53.310Z,4.57
2018-05-13T03:36:20.793Z,4.47
2018-05-13T03:38:49.140Z,5.10
2018-05-13T03:41:16.706Z,4.93
2018-05-13T03:43:44.280Z,4.90
2018-05-13T03:46:11.800Z,4.70
2018-05-13T03:48:39.302Z,4.60
2018-05-13T03:51:06.874Z,11.10
2018-05-13T03:53:34.429Z,14.27
2018-05-13T03:56:01.926Z,16.00
2018-05-13T03:58:30.286Z,11.77
2018-05-13T04:00:57.812Z,25.50
2018-05-13T04:03:25.316Z,23.90
2018-05-13T04:05:52.826Z,25.80
2018-05-13T04:08:41.940Z,24.80
2018-05-13T04:11:22.088Z,30.10
2018-05-13T04:14:01.360Z,28.30
2018-05-13T04:16:28.892Z,27.73
2018-05-13T04:18:56.394Z,27.20
2018-05-13T04:21:24.010Z,28.87
2018-05-13T04:23:51.536Z,27.57
2018-05-13T04:26:19.039Z,28.23
2018-05-13T04:28:46.536Z,27.63
2018-05-13T04:31:14.801Z,26.07
2018-05-13T04:33:42.317Z,26.23
2018-05-13T04:36:09.867Z,23.97
2018-05-13T04:38:37.393Z,22.63
2018-05-13T04:41:04.886Z,22.10
2018-05-13T04:43:32.383Z,21.47
2018-05-13T04:45:59.899Z,20.90
2018-05-13T04:48:28.162Z,20.97
2018-05-13T04:50:55.732Z,21.93
2018-05-13T04:53:23.326Z,21.50
2018-05-13T04:55:50.812Z,20.10
2018-05-13T04:58:18.328Z,19.40
2018-05-13T05:00:45.843Z,18.60
2018-05-13T05:03:13.402Z,19.30
2018-05-13T05:05:40.893Z,18.63
2018-05-13T05:08:08.489Z,19.07
2018-05-13T05:10:36.054Z,19.57
2018-05-13T05:13:03.623Z,19.20
2018-05-13T05:15:31.156Z,18.50
2018-05-13T05:17:58.747Z,17.20
2018-05-13T05:20:26.260Z,18.37
2018-05-13T05:22:53.885Z,16.93
2018-05-13T05:25:21.385Z,16.83
2018-05-13T05:27:48.940Z,17.10
2018-05-13T05:30:16.386Z,16.23
2018-05-13T05:32:43.884Z,17.77
2018-05-13T05:35:11.505Z,16.60
2018-05-13T05:37:39.065Z,17.63
2018-05-13T05:40:06.580Z,17.07
2018-05-13T05:42:34.083Z,16.07
2018-05-13T05:45:01.595Z,16.57
2018-05-13T05:47:29.949Z,17.03
2018-05-13T05:49:57.471Z,17.17
2018-05-13T05:52:25.079Z,15.37
2018-05-13T05:54:52.654Z,17.20
2018-05-13T05:57:20.158Z,16.30
2018-05-13T05:59:47.679Z,16.80
2018-05-13T06:02:15.200Z,16.10
2018-05-13T06:04:42.687Z,16.20
2018-05-13T06:07:10.262Z,15.20
2018-05-13T06:09:37.766Z,14.80
2018-05-13T06:12:06.037Z,14.90
2018-05-13T06:14:34.306Z,14.50
2018-05-13T06:17:01.810Z,14.57
2018-05-13T06:19:29.323Z,15.53
2018-05-13T06:21:56.899Z,14.90
2018-05-13T06:24:24.454Z,16.13
2018-05-13T06:26:52.012Z,14.53
2018-05-13T06:29:19.526Z,15.50
2018-05-13T06:31:47.087Z,14.97
2018-05-13T06:34:14.520Z,14.93
2018-05-13T06:36:43.614Z,14.10
2018-05-13T06:39:11.185Z,15.30
2018-05-13T06:41:38.792Z,14.67
2018-05-13T06:44:06.300Z,15.00
2018-05-13T06:46:33.878Z,14.63
2018-05-13T06:49:01.444Z,14.87
2018-05-13T06:51:29.034Z,14.90
2018-05-13T06:53:56.478Z,13.73
2018-05-13T06:56:23.986Z,14.63
2018-05-13T06:58:51.483Z,13.77
2018-05-13T07:01:19.071Z,13.87
2018-05-13T07:03:46.642Z,13.87
2018-05-13T07:06:14.248Z,13.33
2018-05-13T07:08:41.738Z,13.17
2018-05-13T07:11:09.338Z,13.80
2018-05-13T07:13:36.849Z,12.93
2018-05-13T07:16:04.344Z,13.33
2018-05-13T07:18:31.937Z,12.93
2018-05-13T07:20:59.420Z,12.90
2018-05-13T07:23:27.781Z,12.77
2018-05-13T07:25:55.355Z,12.57
2018-05-13T07:28:23.723Z,12.73
2018-05-13T07:30:51.338Z,12.57
2018-05-13T07:33:18.863Z,12.03
2018-05-13T07:35:47.967Z,12.07
2018-05-13T07:38:15.489Z,12.17
2018-05-13T07:40:43.015Z,11.40
2018-05-13T07:43:11.275Z,11.53
2018-05-13T07:45:38.789Z,11.17
2018-05-13T07:48:06.287Z,11.70
2018-05-13T07:50:33.879Z,10.83
2018-05-13T07:53:01.447Z,10.63
2018-05-13T07:55:28.929Z,9.77
2018-05-13T07:57:56.481Z,9.47
2018-05-13T08:00:24.037Z,9.90
2018-05-13T08:02:51.561Z,10.03
2018-05-13T08:05:19.064Z,9.60
2018-05-13T08:07:46.565Z,9.10
2018-05-13T08:10:14.076Z,9.20
2018-05-13T08:12:41.579Z,8.60
2018-05-13T08:15:09.872Z,8.60
2018-05-13T08:17:37.365Z,8.60
2018-05-13T08:20:04.967Z,9.13
2018-05-13T08:22:32.477Z,8.10
2018-05-13T08:24:59.983Z,8.83
2018-05-13T08:27:27.566Z,8.30
2018-05-13T08:29:55.823Z,7.87
2018-05-13T08:32:23.417Z,7.77
2018-05-13T08:34:50.988Z,8.17
2018-05-13T08:37:19.373Z,7.40
2018-05-13T08:39:46.911Z,8.70
2018-05-13T08:42:14.415Z,8.23
2018-05-13T08:44:42.688Z,7.37
2018-05-13T08:47:10.948Z,8.00
2018-05-13T08:49:38.460Z,7.70
2018-05-13T08:52:05.972Z,7.63
2018-05-13T08:54:33.479Z,8.10
2018-05-13T08:57:01.849Z,7.60
2018-05-13T08:59:30.109Z,7.87
2018-05-13T09:01:57.669Z,7.60
2018-05-13T09:04:26.057Z,8.20
2018-05-13T09:06:53.626Z,8.27
2018-05-13T09:09:21.201Z,7.70
2018-05-13T09:11:48.752Z,7.70
2018-05-13T09:14:16.252Z,7.67
2018-05-13T09:16:44.535Z,7.70
2018-05-13T09:19:12.797Z,7.30
2018-05-13T09:21:40.295Z,8.10
2018-05-13T09:24:07.791Z,7.70
2018-05-13T09:26:35.285Z,7.90
2018-05-13T09:29:02.841Z,8.60
2018-05-13T09:31:30.341Z,7.93
2018-05-13T09:33:57.859Z,8.10
2018-05-13T09:36:25.445Z,8.00
2018-05-13T09:38:53.007Z,8.40
2018-05-13T09:41:20.503Z,8.40
2018-05-13T09:43:48.045Z,8.53
2018-05-13T09:46:15.606Z,8.70
2018-05-13T09:48:43.115Z,8.30
2018-05-13T09:51:10.622Z,8.40
2018-05-13T09:53:38.138Z,8.33
2018-05-13T09:56:05.632Z,8.50
2018-05-13T09:58:33.220Z,8.10
2018-05-13T10:01:00.724Z,8.43
2018-05-13T10:03:28.219Z,8.27
2018-05-13T10:05:55.743Z,8.40
2018-05-13T10:08:24.098Z,8.70
2018-05-13T10:10:51.599Z,7.93
2018-05-13T10:13:19.098Z,8.33
2018-05-13T10:15:46.585Z,8.67
2018-05-13T10:18:14.159Z,8.43
2018-05-13T10:20:41.645Z,8.37
2018-05-13T10:23:10.007Z,7.70
2018-05-13T10:25:37.493Z,8.13
2018-05-13T10:28:05.761Z,8.10
2018-05-13T10:30:33.323Z,8.23
2018-05-13T10:33:00.804Z,8.23
2018-05-13T10:35:29.065Z,8.07
2018-05-13T10:37:56.553Z,7.93
2018-05-13T10:40:24.825Z,7.93
2018-05-13T10:42:53.197Z,8.47
2018-05-13T10:45:20.685Z,7.90
2018-05-13T10:47:49.037Z,8.67
2018-05-13T10:50:16.525Z,7.83
2018-05-13T10:52:44.785Z,7.77
2018-05-13T10:55:12.359Z,7.90
2018-05-13T10:57:39.868Z,8.13
2018-05-13T11:00:07.388Z,7.47
2018-05-13T11:02:34.959Z,8.23
2018-05-13T11:05:02.458Z,7.73
2018-05-13T11:07:30.067Z,7.90
2018-05-13T11:09:57.672Z,8.13
2018-05-13T11:12:26.036Z,7.43
2018-05-13T11:14:53.595Z,7.97
2018-05-13T11:17:21.092Z,7.87
2018-05-13T11:19:49.445Z,7.80
2018-05-13T11:22:17.008Z,7.97
2018-05-13T11:24:44.581Z,8.30
2018-05-13T11:27:12.071Z,7.73
2018-05-13T11:29:40.420Z,7.93
2018-05-13T11:32:08.014Z,7.53
2018-05-13T11:34:36.271Z,7.97
2018-05-13T11:37:03.802Z,7.47
2018-05-13T11:39:31.296Z,8.20
2018-05-13T11:41:58.785Z,8.07
2018-05-13T11:44:27.056Z,7.47
2018-05-13T11:46:54.626Z,7.80
2018-05-13T11:49:22.116Z,7.60
2018-05-13T11:51:49.610Z,7.50
2018-05-13T11:54:17.206Z,7.80
2018-05-13T11:56:44.787Z,7.93
2018-05-13T11:59:12.340Z,8.13
2018-05-13T12:01:39.827Z,7.87
2018-05-13T12:04:08.195Z,7.80
2018-05-13T12:06:35.759Z,7.73
2018-05-13T12:09:03.274Z,7.77
2018-05-13T12:11:30.780Z,8.17
2018-05-13T12:13:58.354Z,8.20
2018-05-13T12:16:25.881Z,7.83
2018-05-13T12:18:53.391Z,8.27
2018-05-13T12:21:20.946Z,8.13
2018-05-13T12:23:48.521Z,8.27
2018-05-13T12:26:16.773Z,7.87
2018-05-13T12:28:44.357Z,8.20
2018-05-13T12:31:11.924Z,8.20
2018-05-13T12:33:39.450Z,8.90
2018-05-13T12:36:06.946Z,8.63
2018-05-13T12:38:34.432Z,8.33
2018-05-13T12:41:02.806Z,8.90
2018-05-13T12:43:30.363Z,8.40
2018-05-13T12:45:57.925Z,7.77
2018-05-13T12:48:25.413Z,7.87
2018-05-13T12:50:53.783Z,8.70
2018-05-13T12:53:21.266Z,8.80
2018-05-13T12:55:49.537Z,8.17
2018-05-13T12:58:17.090Z,9.13
2018-05-13T13:00:44.666Z,8.07
2018-05-13T13:03:12.165Z,8.67
2018-05-13T13:05:39.691Z,8.47
2018-05-13T13:08:07.251Z,8.93
2018-05-13T13:10:34.767Z,9.33
2018-05-13T13:13:02.299Z,8.80
2018-05-13T13:15:30.682Z,9.53
2018-05-13T13:17:58.183Z,9.10
2018-05-13T13:20:25.673Z,8.93
2018-05-13T13:22:53.173Z,9.40
2018-05-13T13:25:21.437Z,9.27
2018-05-13T13:27:49.012Z,8.93
2018-05-13T13:30:16.606Z,8.57
2018-05-13T13:32:44.046Z,9.33
2018-05-13T13:35:11.608Z,9.17
2018-05-13T13:37:39.120Z,9.63
2018-05-13T13:40:06.627Z,10.03
2018-05-13T13:42:34.224Z,9.97
2018-05-13T13:45:02.490Z,8.90
2018-05-13T13:47:30.042Z,8.50
2018-05-13T13:49:57.541Z,9.60
2018-05-13T13:52:25.890Z,9.60
2018-05-13T13:54:53.385Z,10.00
2018-05-13T13:57:21.644Z,9.97
2018-05-13T13:59:49.173Z,10.17
2018-05-13T14:02:16.678Z,9.37
2018-05-13T14:04:44.175Z,10.00
2018-05-13T14:07:11.704Z,9.80
2018-05-13T14:09:39.260Z,10.00
2018-05-13T14:12:06.825Z,9.23
2018-05-13T14:14:35.830Z,9.23
2018-05-13T14:17:03.330Z,9.77
2018-05-13T14:19:30.852Z,10.37
2018-05-13T14:21:58.352Z,10.23
2018-05-13T14:24:26.646Z,10.40
2018-05-13T14:26:54.212Z,10.27
2018-05-13T14:29:22.464Z,10.70
2018-05-13T14:31:49.958Z,10.30
2018-05-13T14:34:17.485Z,11.13
2018-05-13T14:36:45.043Z,10.30
2018-05-13T14:39:12.556Z,10.77
2018-05-13T14:41:40.059Z,10.23
2018-05-13T14:44:07.554Z,9.90
2018-05-13T14:46:35.812Z,10.10
2018-05-13T14:49:03.394Z,10.03
2018-05-13T14:51:30.893Z,9.90
2018-05-13T14:53:58.398Z,10.17
2018-05-13T14:56:25.975Z,10.50
2018-05-13T14:58:53.470Z,9.97
2018-05-13T15:01:21.832Z,10.40
2018-05-13T15:03:49.401Z,10.33
2018-05-13T15:06:16.929Z,10.93
2018-05-13T15:08:44.469Z,11.03
2018-05-13T15:11:11.992Z,10.80
2018-05-13T15:13:39.546Z,10.43
2018-05-13T15:16:07.123Z,10.27
2018-05-13T15:18:34.646Z,10.03
2018-05-13T15:21:02.129Z,10.73
2018-05-13T15:23:29.637Z,10.70
2018-05-13T15:25:58.005Z,10.23
2018-05-13T15:28:25.514Z,10.20
2018-05-13T15:30:53.039Z,10.17
2018-05-13T15:33:20.596Z,10.83
2018-05-13T15:35:48.163Z,10.83
2018-05-13T15:38:15.669Z,10.20
2018-05-13T15:40:43.165Z,10.63
2018-05-13T15:43:10.862Z,9.87
2018-05-13T15:45:39.048Z,10.10
2018-05-13T15:48:06.612Z,10.03
2018-05-13T15:50:34.982Z,10.33
2018-05-13T15:53:02.505Z,9.90
2018-05-13T15:55:30.105Z,10.33
2018-05-13T15:57:57.630Z,10.50
2018-05-13T16:00:25.138Z,10.50
2018-05-13T16:02:52.654Z,9.90
2018-05-13T16:05:20.184Z,10.37
2018-05-13T16:07:47.692Z,9.90
2018-05-13T16:10:15.190Z,10.40
2018-05-13T16:12:42.771Z,10.57
2018-05-13T16:15:10.297Z,10.67
2018-05-13T16:17:37.811Z,10.50
2018-05-13T16:20:05.323Z,10.67
2018-05-13T16:22:32.832Z,10.80
2018-05-13T16:25:00.330Z,9.80
2018-05-13T16:27:27.845Z,10.40
2018-05-13T16:29:55.437Z,10.63
2018-05-13T16:32:22.957Z,10.97
2018-05-13T16:34:50.465Z,10.60
2018-05-13T16:37:18.027Z,11.47
2018-05-13T16:39:45.548Z,10.67
2018-05-13T16:42:13.130Z,11.23
2018-05-13T16:44:40.727Z,11.37
2018-05-13T16:47:08.289Z,10.03
2018-05-13T16:49:35.806Z,10.17
2018-05-13T16:52:03.335Z,10.60
2018-05-13T16:54:31.683Z,10.33
2018-05-13T16:56:59.271Z,10.73
2018-05-13T16:59:26.773Z,10.20
2018-05-13T17:01:54.285Z,10.13
2018-05-13T17:04:21.786Z,9.80
2018-05-13T17:06:50.180Z,9.53
2018-05-13T17:09:18.485Z,8.80
2018-05-13T17:11:45.988Z,10.23
2018-05-13T17:14:13.508Z,9.53
2018-05-13T17:16:40.996Z,9.50
2018-05-13T17:19:08.494Z,9.93
2018-05-13T17:21:36.044Z,8.97
2018-05-13T17:24:03.607Z,8.67
2018-05-13T17:26:31.108Z,8.73
2018-05-13T17:28:59.364Z,9.30
2018-05-13T17:31:26.934Z,8.77
2018-05-13T17:33:54.503Z,9.40
2018-05-13T17:36:22.035Z,8.30
2018-05-13T17:38:49.625Z,8.73
2018-05-13T17:41:18.005Z,8.13
2018-05-13T17:43:46.305Z,8.73
2018-05-13T17:46:13.901Z,8.03
2018-05-13T17:48:41.512Z,8.93
2018-05-13T17:51:09.125Z,9.17
2018-05-13T17:53:36.741Z,8.33
2018-05-13T17:56:04.184Z,7.97
2018-05-13T17:58:31.717Z,8.27
2018-05-13T18:01:00.090Z,8.90
2018-05-13T18:03:28.369Z,9.03
2018-05-13T18:05:56.648Z,8.73
2018-05-13T18:08:25.021Z,9.33
2018-05-13T18:10:52.582Z,9.37
2018-05-13T18:13:20.115Z,8.93
2018-05-13T18:15:47.623Z,8.73
2018-05-13T18:18:15.918Z,9.00
2018-05-13T18:20:44.183Z,8.23
2018-05-13T18:23:11.725Z,7.80
2018-05-13T18:25:39.251Z,8.63
2018-05-13T18:28:06.749Z,8.13
2018-05-13T18:30:34.345Z,8.10
2018-05-13T18:33:01.919Z,7.93
2018-05-13T18:35:29.465Z,8.47
2018-05-13T18:37:56.991Z,8.03
2018-05-13T18:40:24.509Z,8.20
2018-05-13T18:42:52.038Z,7.87
2018-05-13T18:45:19.582Z,7.90
2018-05-13T18:47:47.145Z,8.50
2018-05-13T18:50:14.676Z,7.53
2018-05-13T18:52:43.088Z,7.67
2018-05-13T18:55:11.443Z,6.87
2018-05-13T18:57:39.033Z,10.37
2018-05-13T19:00:06.571Z,7.77
2018-05-13T19:02:34.101Z,8.30
2018-05-13T19:05:01.755Z,8.00
2018-05-13T19:07:29.288Z,7.27
2018-05-13T19:09:57.620Z,7.83
2018-05-13T19:12:25.312Z,7.30
2018-05-13T19:14:52.942Z,7.67
2018-05-13T19:17:20.535Z,7.67
2018-05-13T19:19:48.974Z,7.23
2018-05-13T19:22:16.569Z,7.17
2018-05-13T19:24:44.139Z,7.00
2018-05-13T19:27:11.694Z,6.67
2018-05-13T19:29:39.235Z,6.97
2018-05-13T19:32:06.755Z,7.07
2018-05-13T19:34:34.291Z,6.40
2018-05-13T19:37:01.819Z,7.23
2018-05-13T19:39:30.118Z,6.47
2018-05-13T19:41:57.677Z,6.17
2018-05-13T19:44:25.207Z,7.07
2018-05-13T19:46:52.823Z,6.50
2018-05-13T19:49:20.391Z,6.83
2018-05-13T19:51:47.927Z,6.40
2018-05-13T19:54:16.366Z,6.70
2018-05-13T19:56:44.387Z,7.00
2018-05-13T19:59:12.743Z,6.37
2018-05-13T20:01:40.278Z,6.00
2018-05-13T20:04:07.799Z,6.80
2018-05-13T20:06:36.122Z,6.40
2018-05-13T20:09:03.637Z,6.33
2018-05-13T20:11:31.945Z,6.00
2018-05-13T20:13:59.465Z,5.60
2018-05-13T20:16:26.985Z,7.00
2018-05-13T20:18:54.517Z,6.27
2018-05-13T20:21:22.838Z,5.80
2018-05-13T20:23:50.353Z,6.27
2018-05-13T20:26:17.875Z,5.50
2018-05-13T20:28:45.393Z,6.03
2018-05-13T20:31:13.678Z,6.20
2018-05-13T20:33:41.952Z,5.70
2018-05-13T20:36:10.252Z,5.47
2018-05-13T20:38:38.535Z,5.80
2018-05-13T20:41:06.809Z,5.73
2018-05-13T20:43:35.118Z,6.03
2018-05-13T20:46:02.636Z,5.57
2018-05-13T20:48:30.139Z,6.40
2018-05-13T20:50:57.657Z,5.43
2018-05-13T20:53:25.186Z,5.90
2018-05-13T20:55:52.811Z,5.50
2018-05-13T20:58:20.305Z,5.60
2018-05-13T21:00:47.802Z,5.40
2018-05-13T21:03:15.368Z,5.47
2018-05-13T21:05:42.861Z,5.20
2018-05-13T21:08:10.378Z,5.23
2018-05-13T21:10:37.881Z,5.90
2018-05-13T21:13:05.374Z,5.40
2018-05-13T21:15:33.634Z,5.00
2018-05-13T21:18:01.140Z,5.23
2018-05-13T21:20:28.638Z,5.30
2018-05-13T21:22:56.230Z,4.87
2018-05-13T21:25:23.796Z,5.50
2018-05-13T21:27:51.363Z,5.63
2018-05-13T21:30:19.008Z,4.70
2018-05-13T21:32:47.330Z,4.87
2018-05-13T21:35:14.826Z,4.77
2018-05-13T21:37:42.341Z,5.00
2018-05-13T21:40:09.879Z,4.83
2018-05-13T21:42:37.376Z,4.70
2018-05-13T21:45:04.888Z,5.17
2018-05-13T21:47:32.386Z,5.40
2018-05-13T21:49:59.877Z,4.97
2018-05-13T21:52:28.144Z,4.70
2018-05-13T21:54:55.636Z,4.70
2018-05-13T21:57:23.918Z,4.83
2018-05-13T21:59:52.214Z,5.17
2018-05-13T22:02:19.711Z,4.70
2018-05-13T22:04:55.108Z,4.90
2018-05-13T22:07:22.629Z,4.93
2018-05-13T22:09:50.209Z,4.60
2018-05-13T22:12:17.722Z,4.67
2018-05-13T22:14:45.253Z,4.40
2018-05-13T22:17:12.727Z,5.00
2018-05-13T22:19:41.005Z,4.27
2018-05-13T22:22:09.282Z,4.70
2018-05-13T22:24:36.779Z,5.10
2018-05-13T22:27:04.275Z,4.50
2018-05-13T22:29:31.769Z,5.10
2018-05-13T22:31:59.272Z,4.70
2018-05-13T22:34:26.813Z,4.80
2018-05-13T22:36:55.174Z,4.60
2018-05-13T22:39:22.663Z,4.20
2018-05-13T22:41:51.020Z,4.53
2018-05-13T22:44:18.521Z,4.67
2018-05-13T22:46:46.048Z,4.60
2018-05-13T22:49:13.552Z,4.43
2018-05-13T22:51:41.046Z,4.80
2018-05-13T22:54:08.548Z,4.70
2018-05-13T22:56:36.810Z,4.43
2018-05-13T22:59:04.312Z,4.87
2018-05-13T23:01:32.586Z,4.40
2018-05-13T23:04:00.853Z,4.67
2018-05-13T23:06:31.384Z,4.63
2018-05-13T23:08:58.888Z,5.33
2018-05-13T23:11:26.402Z,4.60
2018-05-13T23:13:53.902Z,4.70
2018-05-13T23:16:22.165Z,4.77
2018-05-13T23:18:50.430Z,5.07
2018-05-13T23:21:18.006Z,4.67
2018-05-13T23:23:45.520Z,4.73
2018-05-13T23:26:13.014Z,4.90
2018-05-13T23:28:40.594Z,4.90
2018-05-13T23:31:08.092Z,4.90
2018-05-13T23:33:36.450Z,4.80
2018-05-13T23:36:04.023Z,4.97
2018-05-13T23:38:31.514Z,5.00
2018-05-13T23:40:59.773Z,4.60
2018-05-13T23:43:27.418Z,5.17
2018-05-13T23:45:55.616Z,4.57
2018-05-13T23:48:23.174Z,5.00
2018-05-13T23:50:50.754Z,4.80
2018-05-13T23:53:18.254Z,5.47
2018-05-13T23:55:45.775Z,5.53
2018-05-13T23:58:13.281Z,4.97
